Terminal Aerodrome Forecast
Issued by NWS

Home | Current Version | Previous Version | Text Only | Print | Product List | Glossary Off
Versions: 1 2 3 4 5 6 7 8 9 10 11 12 13 14 15 16 17 18 19 20

000
FTUS43 KICT 300240 AAA
TAFCNU
TAF AMD
KCNU 300240Z 3003/3024 08005KT P6SM SCT040
      TEMPO 3003/3004 VRB15G25KT 4SM TSRA BKN035CB
     FM301000 10005KT 6SM BR SCT010
     FM301400 10005KT P6SM SCT040=

USA.gov is the U.S. government's official web portal to all federal, state and local government web resources and services.